La Roche-sur-Yon/Les Ajoncs

LFRI · Vandea, Paesi della Loira, Francia

Storia di METAR LFRI · La Roche-sur-Yon/Les Ajoncs

Di seguito sono riportati i METAR degli ultimi giorni. Seleziona un anno per sfogliare i METAR più vecchi, dall'anno 2007 in poi.

25 luglio 2024

Tempo Codice Tempo meteorologico Temp. Vista Base nuvolosa Vento METAR/SPECI
21:30
V
21 °C 10 km+ - 330° 330° 8 kt METAR LFRI 251930Z AUTO 33008KT CAVOK 21/16 Q1014 NOSIG
21:00
V
22 °C 10 km+ - 310° 310° 9 kt METAR LFRI 251900Z AUTO 31009KT CAVOK 22/17 Q1014 NOSIG
20:30
V
23 °C 10 km+ - 330° 330° 9 kt METAR LFRI 251830Z AUTO 33009KT CAVOK 23/17 Q1014 NOSIG
20:00
V
24 °C 10 km+ - 310° 310° 9 kt METAR LFRI 251800Z AUTO 31009KT 270V340 9999 FEW027 24/18 Q1014 NOSIG
19:30
V
24 °C 10 km+ - 310° 310° 10 kt METAR LFRI 251730Z AUTO 31010KT 9999 FEW030 24/18 Q1014 NOSIG
19:00
V
25 °C 10 km+ - 310° 310° 10 kt METAR LFRI 251700Z AUTO 31010KT CAVOK 25/17 Q1014 NOSIG
18:30
V
26 °C 10 km+ - 300° 300° 8 kt METAR LFRI 251630Z AUTO 30008KT 270V340 CAVOK 26/15 Q1014 NOSIG
18:00
V
26 °C 10 km+ - 280° 280° 8 kt METAR LFRI 251600Z AUTO 28008KT CAVOK 26/15 Q1014 NOSIG
17:30
V
26 °C 10 km+ - 290° 290° 7 kt METAR LFRI 251530Z AUTO 29007KT 240V320 CAVOK 26/15 Q1014 NOSIG
17:00
V
25 °C 10 km+ - 270° 270° 8 kt METAR LFRI 251500Z AUTO 27008KT 230V310 CAVOK 25/15 Q1014 NOSIG
16:30
V
26 °C 10 km+ - 290° 290° 9 kt METAR LFRI 251430Z AUTO 29009KT 260V330 CAVOK 26/16 Q1014 NOSIG
16:00
V
26 °C 10 km+ - 280° 280° 7 kt METAR LFRI 251400Z AUTO 28007KT 250V330 CAVOK 26/15 Q1014 NOSIG
15:30
V
26 °C 10 km+ - 300° 300° 8 kt METAR LFRI 251330Z AUTO 30008KT 250V340 CAVOK 26/17 Q1015 NOSIG
15:00
V
26 °C 10 km+ - 300° 300° 7 kt METAR LFRI 251300Z AUTO 30007KT 250V340 CAVOK 26/17 Q1015 NOSIG
14:30
V
25 °C 10 km+ - 290° 290° 6 kt METAR LFRI 251230Z AUTO 29006KT 250V360 CAVOK 25/16 Q1015 NOSIG
14:00
V
26 °C 10 km+ - 280° 280° 6 kt METAR LFRI 251200Z AUTO 28006KT 200V010 CAVOK 26/16 Q1015 NOSIG
13:30
V
25 °C 10 km+ - 300° 300° 7 kt METAR LFRI 251130Z AUTO 30007KT 250V350 CAVOK 25/16 Q1015 NOSIG
13:00
V
25 °C 10 km+ - 280° 280° 4 kt METAR LFRI 251100Z AUTO 28004KT 220V360 CAVOK 25/16 Q1015 NOSIG
12:30
V
24 °C 10 km+ - Var Var 3 kt METAR LFRI 251030Z AUTO VRB03KT CAVOK 24/16 Q1016 NOSIG
12:00
V
24 °C 10 km+ - Var Var 3 kt METAR LFRI 251000Z AUTO VRB03KT CAVOK 24/16 Q1016 NOSIG
11:30
V
23 °C 10 km+ - 320° 320° 4 kt METAR LFRI 250930Z AUTO 32004KT 280V360 CAVOK 23/16 Q1016 NOSIG
11:00
V
22 °C 10 km+ - 310° 310° 4 kt METAR LFRI 250900Z AUTO 31004KT 260V360 CAVOK 22/16 Q1016 NOSIG
10:30
V
22 °C 10 km+ - Var Var 3 kt METAR LFRI 250830Z AUTO VRB03KT CAVOK 22/16 Q1017 NOSIG
10:00
V
20 °C 10 km+ - 330° 330° 4 kt METAR LFRI 250800Z AUTO 33004KT 290V020 CAVOK 20/15 Q1017 NOSIG
09:30
V
19 °C 10 km+ - 330° 330° 5 kt METAR LFRI 250730Z AUTO 33005KT 310V010 CAVOK 19/16 Q1017 NOSIG
09:00
V
18 °C 10 km+ - 340° 340° 3 kt METAR LFRI 250700Z AUTO 34003KT 310V030 CAVOK 18/15 Q1017 NOSIG
08:30
V
17 °C 10 km+ - Var Var 3 kt METAR LFRI 250630Z AUTO VRB03KT CAVOK 17/15 Q1017 NOSIG
08:00
V
16 °C 10 km+ - 360° 360° 3 kt METAR LFRI 250600Z AUTO 36003KT CAVOK 16/15 Q1017 NOSIG
07:30
V
15 °C 10 km+ - 330° 330° 5 kt METAR LFRI 250530Z AUTO 33005KT CAVOK 15/14 Q1017 NOSIG
07:00
V
13 °C 10 km+ - Var Var 3 kt METAR LFRI 250500Z AUTO VRB03KT CAVOK 13/13 Q1017
06:30
V
13 °C 10 km+ - 010° 010° 4 kt METAR LFRI 250430Z AUTO 01004KT CAVOK 13/13 Q1017
06:00
V
13 °C 10 km+ - 010° 010° 3 kt METAR LFRI 250400Z AUTO 01003KT CAVOK 13/13 Q1017
05:30
V
14 °C 10 km+ - 010° 010° 3 kt METAR LFRI 250330Z AUTO 01003KT CAVOK 14/13 Q1017
05:00
V
14 °C 10 km+ - 360° 360° 4 kt METAR LFRI 250300Z AUTO 36004KT CAVOK 14/14 Q1018
04:30
V
15 °C 10 km+ - 350° 350° 5 kt METAR LFRI 250230Z AUTO 35005KT CAVOK 15/14 Q1018
04:00
V
15 °C 10 km+ - 340° 340° 5 kt METAR LFRI 250200Z AUTO 34005KT CAVOK 15/14 Q1018
03:30
V
15 °C 10 km+ - 360° 360° 3 kt METAR LFRI 250130Z AUTO 36003KT CAVOK 15/14 Q1018
03:00
V
15 °C 10 km+ - 360° 360° 3 kt METAR LFRI 250100Z AUTO 36003KT CAVOK 15/14 Q1018
02:30
V
15 °C 10 km+ - 010° 010° 4 kt METAR LFRI 250030Z AUTO 01004KT CAVOK 15/14 Q1018
02:00
V
16 °C 10 km+ - 010° 010° 5 kt METAR LFRI 250000Z AUTO 01005KT CAVOK 16/14 Q1019
01:30
V
16 °C 10 km+ - 360° 360° 4 kt METAR LFRI 242330Z AUTO 36004KT CAVOK 16/14 Q1019
01:00
V
16 °C 10 km+ - 010° 010° 5 kt METAR LFRI 242300Z AUTO 01005KT CAVOK 16/14 Q1019
00:30
V
17 °C 10 km+ - 350° 350° 5 kt METAR LFRI 242230Z AUTO 35005KT CAVOK 17/14 Q1019
00:00
V
18 °C 10 km+ - 350° 350° 7 kt METAR LFRI 242200Z AUTO 35007KT CAVOK 18/15 Q1019

24 luglio 2024

Tempo Codice Tempo meteorologico Temp. Vista Base nuvolosa Vento METAR/SPECI
23:30
V
18 °C 10 km+ - 350° 350° 7 kt METAR LFRI 242130Z AUTO 35007KT CAVOK 18/15 Q1019
23:00
V
19 °C 10 km+ - 350° 350° 6 kt METAR LFRI 242100Z AUTO 35006KT CAVOK 19/15 Q1019
22:30
V
19 °C 10 km+ - 340° 340° 6 kt METAR LFRI 242030Z AUTO 34006KT CAVOK 19/15 Q1019
22:00
V
20 °C 10 km+ - 340° 340° 7 kt METAR LFRI 242000Z AUTO 34007KT CAVOK 20/15 Q1019
21:30
V
21 °C 10 km+ - 340° 340° 7 kt METAR LFRI 241930Z AUTO 34007KT CAVOK 21/15 Q1019
21:00
V
22 °C 10 km+ - 360° 360° 5 kt METAR LFRI 241900Z AUTO 36005KT CAVOK 22/15 Q1019
20:30
V
23 °C 10 km+ - 360° 360° 6 kt METAR LFRI 241830Z AUTO 36006KT CAVOK 23/15 Q1019
20:00
V
24 °C 10 km+ - 360° 360° 6 kt METAR LFRI 241800Z AUTO 36006KT 320V030 CAVOK 24/15 Q1019
19:30
V
25 °C 10 km+ - 360° 360° 7 kt METAR LFRI 241730Z AUTO 36007KT CAVOK 25/15 Q1019
19:00
V
25 °C 10 km+ - 350° 350° 7 kt METAR LFRI 241700Z AUTO 35007KT CAVOK 25/15 Q1019 NOSIG
18:30
V
25 °C 10 km+ - 010° 010° 7 kt METAR LFRI 241630Z AUTO 01007KT 340V040 9999 FEW014 25/15 Q1019 NOSIG
18:00
V
26 °C 10 km+ - 030° 030° 7 kt METAR LFRI 241600Z AUTO 03007KT 350V050 CAVOK 26/15 Q1019 NOSIG
17:30
V
26 °C 10 km+ - 030° 030° 5 kt METAR LFRI 241530Z AUTO 03005KT 330V070 9999 FEW046 26/15 Q1020 NOSIG
17:00
V
26 °C 10 km+ - 330° 330° 4 kt METAR LFRI 241500Z AUTO 33004KT 290V040 CAVOK 26/15 Q1020 NOSIG
16:30
V
26 °C 10 km+ - 340° 340° 3 kt METAR LFRI 241430Z AUTO 34003KT 290V080 CAVOK 26/16 Q1020 NOSIG
16:00
V
25 °C 10 km+ - Var Var 3 kt METAR LFRI 241400Z AUTO VRB03KT CAVOK 25/14 Q1020 NOSIG
15:30
V
25 °C 10 km+ - 040° 040° 4 kt METAR LFRI 241330Z AUTO 04004KT 010V090 9999 FEW013 25/15 Q1021 NOSIG
15:00
V
25 °C 10 km+ - 350° 350° 5 kt METAR LFRI 241300Z AUTO 35005KT 290V060 CAVOK 25/14 Q1021 NOSIG
14:30
V
24 °C 10 km+ - Var Var 4 kt METAR LFRI 241230Z AUTO VRB04KT 9999 FEW041 24/15 Q1021 NOSIG
14:00
V
24 °C 10 km+ - 050° 050° 5 kt METAR LFRI 241200Z AUTO 05005KT 360V090 9999 SCT038 24/15 Q1021 NOSIG
13:30
V
24 °C 10 km+ - 010° 010° 5 kt METAR LFRI 241130Z AUTO 01005KT 310V080 9999 SCT037 24/16 Q1022 NOSIG
13:00
V
23 °C 10 km+ - 360° 360° 4 kt METAR LFRI 241100Z AUTO 36004KT 270V050 9999 SCT035 23/15 Q1022 NOSIG
12:30
V
22 °C 10 km+ 3.300 ft 350° 350° 4 kt METAR LFRI 241030Z AUTO 35004KT 260V040 9999 BKN033 22/14 Q1022 NOSIG
12:00
V
22 °C 10 km+ 3.100 ft 010° 010° 6 kt METAR LFRI 241000Z AUTO 01006KT 350V060 9999 BKN031 22/15 Q1022 NOSIG
11:30
V
22 °C 10 km+ - 030° 030° 6 kt METAR LFRI 240930Z AUTO 03006KT 350V090 9999 FEW029 22/16 Q1022 NOSIG
11:00
V
21 °C 10 km+ 3.600 ft 030° 030° 6 kt METAR LFRI 240900Z AUTO 03006KT 360V060 9999 OVC036 21/15 Q1022 NOSIG
10:30
V
20 °C 10 km+ 3.600 ft 040° 040° 6 kt METAR LFRI 240830Z AUTO 04006KT 9999 OVC036 20/15 Q1022 NOSIG
10:00
V
19 °C 10 km+ 3.500 ft 050° 050° 6 kt METAR LFRI 240800Z AUTO 05006KT 9999 OVC035 19/14 Q1022 NOSIG
09:30
V
18 °C 10 km+ 3.400 ft 050° 050° 6 kt METAR LFRI 240730Z AUTO 05006KT 9999 OVC034 18/15 Q1022 NOSIG
09:00
V
17 °C 10 km+ 3.400 ft 050° 050° 6 kt METAR LFRI 240700Z AUTO 05006KT 020V080 9999 BKN034 17/14 Q1022 NOSIG
08:30
V
17 °C 10 km+ - 040° 040° 6 kt METAR LFRI 240630Z AUTO 04006KT 9999 FEW034 17/14 Q1022 NOSIG
08:00
V
16 °C 10 km+ - 030° 030° 5 kt METAR LFRI 240600Z AUTO 03005KT 9999 FEW031 16/14 Q1022 NOSIG
07:30
V
15 °C 10 km+ 3.100 ft 020° 020° 4 kt METAR LFRI 240530Z AUTO 02004KT 9999 BKN031 15/14 Q1022 NOSIG
07:00
M
14 °C 10 km+ 2.900 ft 030° 030° 4 kt METAR LFRI 240500Z AUTO 03004KT 9999 BKN029 14/13 Q1022
06:30
M
14 °C 10 km+ 2.900 ft 040° 040° 4 kt METAR LFRI 240430Z AUTO 04004KT 9999 OVC029 14/13 Q1022
06:00
M
13 °C 10 km+ 2.800 ft 040° 040° 5 kt METAR LFRI 240400Z AUTO 04005KT 9999 BKN028 13/13 Q1022
05:30
V
14 °C 10 km+ - 030° 030° 6 kt METAR LFRI 240330Z AUTO 03006KT 9999 FEW027 14/13 Q1022
05:00
M
14 °C 10 km+ 2.600 ft 040° 040° 5 kt METAR LFRI 240300Z AUTO 04005KT 9999 BKN026 14/13 Q1022
04:30
M
15 °C 10 km+ 2.600 ft 030° 030° 5 kt METAR LFRI 240230Z AUTO 03005KT 9999 OVC026 15/14 Q1022
04:00
M
15 °C 10 km+ 2.500 ft 050° 050° 5 kt METAR LFRI 240200Z AUTO 05005KT 9999 OVC025 15/14 Q1022
03:30
M
15 °C 10 km+ 2.400 ft 040° 040° 6 kt METAR LFRI 240130Z AUTO 04006KT 9999 OVC024 15/15 Q1023
03:00
M
15 °C 10 km+ 2.400 ft 020° 020° 4 kt METAR LFRI 240100Z AUTO 02004KT 9999 OVC024 15/15 Q1023
02:30
M
15 °C 10 km+ 2.400 ft Var Var 3 kt METAR LFRI 240030Z AUTO VRB03KT 9999 OVC024 15/15 Q1023
02:00
M
15 °C 10 km+ 2.400 ft 250° 250° 3 kt METAR LFRI 240000Z AUTO 25003KT 230V290 9999 OVC024 15/15 Q1023
01:30
V
14 °C 10 km+ - 270° 270° 3 kt METAR LFRI 232330Z AUTO 27003KT 9999 SCT026 14/14 Q1024
01:00
V
14 °C 10 km+ - 280° 280° 2 kt METAR LFRI 232300Z AUTO 28002KT CAVOK 14/13 Q1023
00:30
V
15 °C 10 km+ - Var Var 2 kt METAR LFRI 232230Z AUTO VRB02KT CAVOK 15/14 Q1023
00:00
V
15 °C 10 km+ - 290° 290° 4 kt METAR LFRI 232200Z AUTO 29004KT CAVOK 15/14 Q1024

23 luglio 2024

Tempo Codice Tempo meteorologico Temp. Vista Base nuvolosa Vento METAR/SPECI
23:30
V
15 °C 10 km+ - 290° 290° 4 kt METAR LFRI 232130Z AUTO 29004KT CAVOK 15/14 Q1023
23:00
V
16 °C 10 km+ - 300° 300° 5 kt METAR LFRI 232100Z AUTO 30005KT CAVOK 16/14 Q1023 NOSIG
22:30
V
17 °C 10 km+ - 300° 300° 6 kt METAR LFRI 232030Z AUTO 30006KT CAVOK 17/15 Q1023 NOSIG
22:00
V
17 °C 10 km+ - 300° 300° 6 kt METAR LFRI 232000Z AUTO 30006KT CAVOK 17/15 Q1023 NOSIG
21:30
V
19 °C 10 km+ - 280° 280° 7 kt METAR LFRI 231930Z AUTO 28007KT 9999 SCT020 19/16 Q1023 NOSIG
21:00
M
20 °C 10 km+ 2.200 ft 280° 280° 7 kt METAR LFRI 231900Z AUTO 28007KT 9999 BKN022 20/16 Q1023 NOSIG
20:30
M
21 °C 10 km+ 2.100 ft 280° 280° 7 kt METAR LFRI 231830Z AUTO 28007KT 9999 BKN021 21/16 Q1022 NOSIG
20:00
M
21 °C 10 km+ 2.100 ft 280° 280° 7 kt METAR LFRI 231800Z AUTO 28007KT 240V300 9999 BKN021 21/17 Q1022 NOSIG
19:30
M
22 °C 10 km+ 2.300 ft 290° 290° 8 kt METAR LFRI 231730Z AUTO 29008KT 230V320 9999 OVC023 22/17 Q1023 NOSIG
19:00
M
22 °C 10 km+ 2.200 ft 290° 290° 9 kt METAR LFRI 231700Z AUTO 29009KT 9999 OVC022 22/18 Q1023
18:30
M
22 °C 10 km+ 2.200 ft 280° 280° 8 kt METAR LFRI 231630Z AUTO 28008KT 9999 BKN022 OVC027 22/17 Q1023
18:00
M
22 °C 10 km+ 1.800 ft 300° 300° 8 kt METAR LFRI 231600Z AUTO 30008KT 260V320 9999 BKN018 OVC026 22/18 Q1023
17:30
M
22 °C 10 km+ 1.900 ft 280° 280° 8 kt METAR LFRI 231530Z AUTO 28008KT 9999 BKN019 OVC025 22/18 Q1023
17:00
M
22 °C 10 km+ 1.600 ft 260° 260° 9 kt METAR LFRI 231500Z AUTO 26009KT 230V290 9999 BKN016 OVC022 22/18 Q1023
16:30
M
22 °C 10 km+ 1.800 ft 260° 260° 7 kt METAR LFRI 231430Z AUTO 26007KT 230V300 9999 OVC018 22/18 Q1023
16:00
M
22 °C 10 km+ 1.500 ft 260° 260° 8 kt METAR LFRI 231400Z AUTO 26008KT 9999 OVC015 22/19 Q1023
15:30
M
22 °C 10 km+ 1.400 ft 280° 280° 8 kt METAR LFRI 231330Z AUTO 28008KT 230V310 9999 OVC014 22/18 Q1023
15:00
M
22 °C 10 km+ 1.500 ft 260° 260° 7 kt METAR LFRI 231300Z AUTO 26007KT 230V290 9999 OVC015 22/18 Q1023
14:30
M
21 °C 10 km+ 1.300 ft 230° 230° 7 kt METAR LFRI 231230Z AUTO 23007KT 200V280 9999 BKN013 OVC021 21/18 Q1023
14:00
M
20 °C 10 km+ 1.000 ft 240° 240° 7 kt METAR LFRI 231200Z AUTO 24007KT 9999 BKN010 OVC014 20/18 Q1023
13:30
I
20 °C 10 km+ 800 ft 250° 250° 7 kt METAR LFRI 231130Z AUTO 25007KT 210V280 9999 BKN008 OVC012 20/18 Q1023
13:00
I
20 °C 10 km+ 900 ft 270° 270° 8 kt METAR LFRI 231100Z AUTO 27008KT 230V300 9999 OVC009 20/18 Q1023
12:30
I
20 °C 10 km+ 900 ft 250° 250° 7 kt METAR LFRI 231030Z AUTO 25007KT 220V290 9999 OVC009 20/18 Q1023
12:00
M
20 °C 10 km+ 1.000 ft 260° 260° 8 kt METAR LFRI 231000Z AUTO 26008KT 230V290 9999 OVC010 20/18 Q1023
11:30
I
20 °C 10 km+ 800 ft 250° 250° 7 kt METAR LFRI 230930Z AUTO 25007KT 210V280 9999 OVC008 20/18 Q1023
11:00
I
19 °C 8 km 500 ft 260° 260° 8 kt METAR LFRI 230900Z AUTO 26008KT 220V290 8000 OVC005 19/18 Q1023
10:30
I
19 °C 7 km 500 ft 240° 240° 7 kt METAR LFRI 230830Z AUTO 24007KT 210V270 7000 OVC005 19/18 Q1023
10:00
I
19 °C 4,3 km 500 ft 240° 240° 6 kt METAR LFRI 230800Z AUTO 24006KT 210V280 4300 BR OVC005 19/18 Q1023
09:30
I
19 °C 10 km+ 600 ft 250° 250° 6 kt METAR LFRI 230730Z AUTO 25006KT 220V300 9999 OVC006 19/18 Q1023
09:00
I
19 °C 10 km+ 700 ft 240° 240° 7 kt METAR LFRI 230700Z AUTO 24007KT 210V270 9999 OVC007 19/17 Q1023
08:30
I
18 °C 8 km 500 ft 240° 240° 6 kt METAR LFRI 230630Z AUTO 24006KT 210V270 8000 BKN005 OVC009 18/17 Q1023
08:00
I
18 °C 7 km 500 ft 240° 240° 8 kt METAR LFRI 230600Z AUTO 24008KT 7000 OVC005 18/17 Q1023
Segnala modifiche